createdAt,value
2017-06-25T00:00:02.952Z,18.99
2017-06-25T00:00:07.259Z,18.99
2017-06-25T00:00:11.712Z,18.99
2017-06-25T00:00:16.143Z,18.98
2017-06-25T00:00:20.568Z,18.98
2017-06-25T00:00:24.754Z,18.98
2017-06-25T00:00:29.188Z,18.98
2017-06-25T00:00:33.386Z,18.98
2017-06-25T00:00:37.808Z,18.97
2017-06-25T00:00:42.229Z,18.97
2017-06-25T00:00:46.647Z,18.98
2017-06-25T00:00:50.955Z,18.97
2017-06-25T00:00:55.282Z,18.97
2017-06-25T00:00:59.580Z,18.98
2017-06-25T00:01:03.882Z,18.98
2017-06-25T00:01:08.311Z,18.98
2017-06-25T00:01:12.739Z,18.98
2017-06-25T00:01:16.924Z,18.97
2017-06-25T00:01:21.230Z,18.98
2017-06-25T00:01:25.302Z,18.98
2017-06-25T00:01:29.725Z,18.97
2017-06-25T00:01:34.033Z,18.98
2017-06-25T00:01:38.353Z,18.97
2017-06-25T00:01:42.659Z,18.97
2017-06-25T00:01:47.080Z,18.96
2017-06-25T00:01:51.502Z,18.97
2017-06-25T00:01:55.826Z,18.98
2017-06-25T00:02:00.259Z,18.97
2017-06-25T00:02:04.932Z,18.96
2017-06-25T00:02:09.237Z,18.97
2017-06-25T00:02:13.659Z,18.97
2017-06-25T00:02:18.085Z,18.96
2017-06-25T00:02:22.393Z,18.97
2017-06-25T00:02:26.578Z,18.96
2017-06-25T00:02:30.883Z,18.97
2017-06-25T00:02:35.192Z,18.96
2017-06-25T00:02:39.622Z,18.96
2017-06-25T00:02:44.044Z,18.97
2017-06-25T00:02:48.468Z,18.96
2017-06-25T00:02:52.661Z,18.96
2017-06-25T00:02:57.086Z,18.96
2017-06-25T00:03:01.555Z,18.96
2017-06-25T00:03:06.132Z,18.96
2017-06-25T00:03:10.554Z,18.97
2017-06-25T00:03:14.983Z,18.96
2017-06-25T00:03:19.408Z,18.96
2017-06-25T00:03:23.607Z,18.96
2017-06-25T00:03:27.674Z,18.96
2017-06-25T00:03:31.625Z,18.96
2017-06-25T00:03:35.929Z,18.96
2017-06-25T00:03:40.119Z,18.96
2017-06-25T00:03:44.542Z,18.96
2017-06-25T00:03:48.960Z,18.95
2017-06-25T00:03:53.264Z,18.96
2017-06-25T00:03:57.447Z,18.96
2017-06-25T00:04:02.025Z,18.96
2017-06-25T00:04:06.240Z,18.95
2017-06-25T00:04:10.543Z,18.95
2017-06-25T00:04:14.963Z,18.96
2017-06-25T00:04:19.384Z,18.95
2017-06-25T00:04:23.688Z,18.97
2017-06-25T00:04:27.645Z,18.96
2017-06-25T00:04:31.831Z,18.96
2017-06-25T00:04:36.255Z,18.97
2017-06-25T00:04:40.678Z,18.96
2017-06-25T00:04:45.103Z,18.96
2017-06-25T00:04:49.524Z,18.96
2017-06-25T00:04:53.947Z,18.96
2017-06-25T00:04:58.419Z,18.97
2017-06-25T00:05:02.835Z,18.96
2017-06-25T00:05:07.044Z,18.96
2017-06-25T00:05:11.468Z,18.96
2017-06-25T00:05:15.776Z,18.96
2017-06-25T00:05:20.199Z,18.96
2017-06-25T00:05:24.386Z,18.95
2017-06-25T00:05:28.832Z,18.95
2017-06-25T00:05:33.138Z,18.96
2017-06-25T00:05:37.327Z,18.96
2017-06-25T00:05:41.631Z,18.96
2017-06-25T00:05:46.060Z,18.96
2017-06-25T00:05:50.366Z,18.96
2017-06-25T00:05:54.671Z,18.96
2017-06-25T00:05:59.089Z,18.96
2017-06-25T00:06:03.509Z,18.96
2017-06-25T00:06:07.712Z,18.96
2017-06-25T00:06:11.792Z,18.96
2017-06-25T00:06:16.214Z,18.96
2017-06-25T00:06:20.640Z,18.97
2017-06-25T00:06:24.708Z,18.97
2017-06-25T00:06:29.021Z,18.97
2017-06-25T00:06:33.220Z,18.97
2017-06-25T00:06:37.646Z,18.97
2017-06-25T00:06:41.949Z,18.97
2017-06-25T00:06:46.259Z,18.97
2017-06-25T00:06:50.682Z,18.97
2017-06-25T00:06:54.873Z,18.96
2017-06-25T00:06:59.197Z,18.96
2017-06-25T00:07:03.497Z,18.97
2017-06-25T00:07:07.705Z,18.98
2017-06-25T00:07:12.010Z,18.98
2017-06-25T00:07:16.312Z,18.97
2017-06-25T00:07:20.769Z,18.98
2017-06-25T00:07:24.952Z,18.98
2017-06-25T00:07:29.252Z,18.97
2017-06-25T00:07:33.316Z,18.97
2017-06-25T00:07:37.738Z,18.98
2017-06-25T00:07:42.043Z,18.98
2017-06-25T00:07:46.467Z,18.97
2017-06-25T00:07:50.888Z,18.98
2017-06-25T00:07:55.073Z,18.98
2017-06-25T00:07:59.262Z,18.98
2017-06-25T00:08:03.687Z,18.98
2017-06-25T00:08:07.993Z,18.98
2017-06-25T00:08:12.295Z,18.98
2017-06-25T00:08:16.597Z,18.98
2017-06-25T00:08:21.019Z,18.99
2017-06-25T00:08:25.439Z,18.99
2017-06-25T00:08:29.625Z,18.98
2017-06-25T00:08:33.808Z,18.99
2017-06-25T00:08:38.233Z,18.98
2017-06-25T00:08:42.653Z,18.99
2017-06-25T00:08:47.075Z,18.99
2017-06-25T00:08:51.380Z,18.99
2017-06-25T00:08:55.685Z,18.99
2017-06-25T00:08:59.996Z,18.99
2017-06-25T00:09:04.424Z,18.98
2017-06-25T00:09:08.877Z,18.99
2017-06-25T00:09:13.299Z,18.99
2017-06-25T00:09:17.721Z,18.99
2017-06-25T00:09:21.904Z,18.99
2017-06-25T00:09:26.207Z,19
2017-06-25T00:09:30.513Z,18.99
2017-06-25T00:09:34.818Z,18.99
2017-06-25T00:09:39.237Z,18.99
2017-06-25T00:09:43.541Z,18.99
2017-06-25T00:09:47.964Z,19
2017-06-25T00:09:52.392Z,18.99
2017-06-25T00:09:56.809Z,19
2017-06-25T00:10:01.361Z,18.99
2017-06-25T00:10:05.767Z,18.99
2017-06-25T00:10:10.197Z,18.99
2017-06-25T00:10:14.507Z,18.99
2017-06-25T00:10:18.933Z,19
2017-06-25T00:10:23.118Z,19
2017-06-25T00:10:27.311Z,19.01
2017-06-25T00:10:31.613Z,19
2017-06-25T00:10:35.807Z,19
2017-06-25T00:10:40.107Z,18.99
2017-06-25T00:10:44.527Z,19
2017-06-25T00:10:48.830Z,19
2017-06-25T00:10:53.255Z,19
2017-06-25T00:10:57.684Z,19
2017-06-25T00:11:02.108Z,19
2017-06-25T00:11:06.408Z,18.99
2017-06-25T00:11:10.828Z,19.01
2017-06-25T00:11:15.258Z,19.01
2017-06-25T00:11:19.688Z,19.01
2017-06-25T00:11:23.870Z,19.01
2017-06-25T00:11:28.055Z,19.01
2017-06-25T00:11:32.127Z,19
2017-06-25T00:11:36.435Z,19
2017-06-25T00:11:40.621Z,19
2017-06-25T00:11:45.042Z,19
2017-06-25T00:11:49.464Z,19
2017-06-25T00:11:53.651Z,18.99
2017-06-25T00:11:57.959Z,19.01
2017-06-25T00:12:02.149Z,19.01
2017-06-25T00:12:06.457Z,18.99
2017-06-25T00:12:10.876Z,19.01
2017-06-25T00:12:15.300Z,19.01
2017-06-25T00:12:19.722Z,19.01
2017-06-25T00:12:24.029Z,19.01
2017-06-25T00:12:28.217Z,19.01
2017-06-25T00:12:32.283Z,19
2017-06-25T00:12:36.701Z,19.01
2017-06-25T00:12:41.004Z,19.01
2017-06-25T00:12:45.450Z,19
2017-06-25T00:12:49.870Z,19
2017-06-25T00:12:54.171Z,19.01
2017-06-25T00:12:58.590Z,18.99
2017-06-25T00:13:02.895Z,19
2017-06-25T00:13:07.242Z,19.01
2017-06-25T00:13:11.660Z,18.99
2017-06-25T00:13:16.078Z,19.01
2017-06-25T00:13:20.384Z,19
2017-06-25T00:13:24.689Z,19
2017-06-25T00:13:29.033Z,19.01
2017-06-25T00:13:33.334Z,19.01
2017-06-25T00:13:37.758Z,19
2017-06-25T00:13:41.938Z,19.01
2017-06-25T00:13:46.362Z,19
2017-06-25T00:13:50.697Z,19.01
2017-06-25T00:13:54.882Z,19.01
2017-06-25T00:13:59.182Z,19.01
2017-06-25T00:14:03.787Z,19
2017-06-25T00:14:08.209Z,19.01
2017-06-25T00:14:12.646Z,19.01
2017-06-25T00:14:16.960Z,19.01
2017-06-25T00:14:21.143Z,19.01
2017-06-25T00:14:25.447Z,19.01
2017-06-25T00:14:29.753Z,19.01
2017-06-25T00:14:33.946Z,19.01
2017-06-25T00:14:38.368Z,19.01
2017-06-25T00:14:42.557Z,19.01
2017-06-25T00:14:46.857Z,19
2017-06-25T00:14:51.280Z,19.01
2017-06-25T00:14:55.588Z,19
2017-06-25T00:15:00.034Z,19
2017-06-25T00:15:04.341Z,19.01
2017-06-25T00:15:08.765Z,19.01
2017-06-25T00:15:13.191Z,19.01
2017-06-25T00:15:17.616Z,19
2017-06-25T00:15:22.037Z,19
2017-06-25T00:15:26.223Z,18.99
2017-06-25T00:15:30.646Z,19
2017-06-25T00:15:34.831Z,19
2017-06-25T00:15:39.143Z,18.99
2017-06-25T00:15:43.451Z,19
2017-06-25T00:15:47.766Z,19
2017-06-25T00:15:52.186Z,18.99
2017-06-25T00:15:56.607Z,19
2017-06-25T00:16:00.797Z,19
2017-06-25T00:16:05.572Z,18.99
2017-06-25T00:16:09.992Z,19.01
2017-06-25T00:16:14.298Z,18.99
2017-06-25T00:16:18.604Z,18.99
2017-06-25T00:16:23.032Z,18.99
2017-06-25T00:16:27.233Z,18.99
2017-06-25T00:16:31.540Z,19.01
2017-06-25T00:16:35.846Z,19
2017-06-25T00:16:40.158Z,19.01
2017-06-25T00:16:44.468Z,18.99
2017-06-25T00:16:48.890Z,19
2017-06-25T00:16:53.310Z,18.99
2017-06-25T00:16:57.739Z,19
2017-06-25T00:17:02.168Z,18.99
2017-06-25T00:17:06.365Z,18.99
2017-06-25T00:17:10.792Z,19
2017-06-25T00:17:15.214Z,18.99
2017-06-25T00:17:19.640Z,18.99
2017-06-25T00:17:23.827Z,18.99
2017-06-25T00:17:28.137Z,19
2017-06-25T00:17:32.208Z,18.99
2017-06-25T00:17:36.509Z,18.99
2017-06-25T00:17:40.934Z,18.99
2017-06-25T00:17:45.361Z,18.99
2017-06-25T00:17:49.674Z,18.99
2017-06-25T00:17:54.093Z,18.99
2017-06-25T00:17:58.510Z,18.98
2017-06-25T00:18:03.182Z,18.99
2017-06-25T00:18:07.604Z,18.99
2017-06-25T00:18:12.034Z,18.98
2017-06-25T00:18:16.333Z,18.98
2017-06-25T00:18:20.521Z,18.98
2017-06-25T00:18:24.715Z,18.99
2017-06-25T00:18:29.017Z,18.98
2017-06-25T00:18:33.108Z,18.99
2017-06-25T00:18:37.532Z,18.98
2017-06-25T00:18:41.956Z,18.99
2017-06-25T00:18:46.375Z,18.98
2017-06-25T00:18:50.798Z,18.98
2017-06-25T00:18:55.219Z,18.98
2017-06-25T00:18:59.636Z,18.98
2017-06-25T00:19:04.070Z,18.98
2017-06-25T00:19:08.493Z,18.97
2017-06-25T00:19:12.804Z,18.98
2017-06-25T00:19:17.018Z,18.98
2017-06-25T00:19:21.316Z,18.98
2017-06-25T00:19:25.500Z,18.97
2017-06-25T00:19:29.808Z,18.98
2017-06-25T00:19:34.111Z,18.97
2017-06-25T00:19:38.535Z,18.98
2017-06-25T00:19:42.839Z,18.97
2017-06-25T00:19:47.255Z,18.97
2017-06-25T00:19:51.674Z,18.97
2017-06-25T00:19:56.092Z,18.98
2017-06-25T00:20:00.416Z,18.98
2017-06-25T00:20:05.011Z,18.97
2017-06-25T00:20:09.199Z,18.97
2017-06-25T00:20:13.500Z,18.96
2017-06-25T00:20:17.693Z,18.97
2017-06-25T00:20:22.132Z,18.97
2017-06-25T00:20:26.432Z,18.97
2017-06-25T00:20:30.744Z,18.97
2017-06-25T00:20:35.052Z,18.97
2017-06-25T00:20:39.474Z,18.97
2017-06-25T00:20:43.781Z,18.97
2017-06-25T00:20:48.202Z,18.98
2017-06-25T00:20:52.505Z,18.97
2017-06-25T00:20:56.922Z,18.96
2017-06-25T00:21:01.347Z,18.96
2017-06-25T00:21:05.656Z,18.97
2017-06-25T00:21:09.966Z,18.96
2017-06-25T00:21:14.388Z,18.97
2017-06-25T00:21:18.695Z,18.97
2017-06-25T00:21:23.006Z,18.97
2017-06-25T00:21:27.083Z,18.96
2017-06-25T00:21:31.268Z,18.96
2017-06-25T00:21:35.690Z,18.97
2017-06-25T00:21:40.119Z,18.96
2017-06-25T00:21:44.556Z,18.97
2017-06-25T00:21:48.979Z,18.96
2017-06-25T00:21:53.404Z,18.96
2017-06-25T00:21:57.831Z,18.96
2017-06-25T00:22:02.255Z,18.96
2017-06-25T00:22:06.449Z,18.96
2017-06-25T00:22:10.874Z,18.95
2017-06-25T00:22:15.293Z,18.96
2017-06-25T00:22:19.717Z,18.95
2017-06-25T00:22:24.028Z,18.95
2017-06-25T00:22:28.357Z,18.96
2017-06-25T00:22:32.666Z,18.95
2017-06-25T00:22:36.970Z,18.95
2017-06-25T00:22:41.390Z,18.95
2017-06-25T00:22:45.817Z,18.95
2017-06-25T00:22:50.123Z,18.94
2017-06-25T00:22:54.551Z,18.95
2017-06-25T00:22:58.971Z,18.94
2017-06-25T00:23:03.279Z,18.95
2017-06-25T00:23:07.470Z,18.95
2017-06-25T00:23:11.898Z,18.94
2017-06-25T00:23:16.326Z,18.94
2017-06-25T00:23:20.749Z,18.94
2017-06-25T00:23:25.058Z,18.94
2017-06-25T00:23:29.274Z,18.93
2017-06-25T00:23:33.346Z,18.93
2017-06-25T00:23:37.765Z,18.93
2017-06-25T00:23:42.194Z,18.93
2017-06-25T00:23:46.623Z,18.93
2017-06-25T00:23:50.927Z,18.93
2017-06-25T00:23:55.347Z,18.93
2017-06-25T00:23:59.765Z,18.94
2017-06-25T00:24:04.200Z,18.92
2017-06-25T00:24:08.509Z,18.92
2017-06-25T00:24:12.935Z,18.92
2017-06-25T00:24:17.358Z,18.92
2017-06-25T00:24:21.777Z,18.92
2017-06-25T00:24:25.847Z,18.93
2017-06-25T00:24:30.268Z,18.92
2017-06-25T00:24:34.579Z,18.91
2017-06-25T00:24:39.000Z,18.92
2017-06-25T00:24:43.418Z,18.92
2017-06-25T00:24:47.843Z,18.92
2017-06-25T00:24:52.269Z,18.91
2017-06-25T00:24:56.690Z,18.92
2017-06-25T00:25:01.110Z,18.91
2017-06-25T00:25:05.632Z,18.91
2017-06-25T00:25:10.063Z,18.91
2017-06-25T00:25:14.496Z,18.91
2017-06-25T00:25:18.919Z,18.91
2017-06-25T00:25:22.992Z,18.91
2017-06-25T00:25:27.297Z,18.91
2017-06-25T00:25:31.610Z,18.91
2017-06-25T00:25:35.917Z,18.91
2017-06-25T00:25:40.340Z,18.89
2017-06-25T00:25:44.763Z,18.9
2017-06-25T00:25:49.188Z,18.89
2017-06-25T00:25:53.494Z,18.9
2017-06-25T00:25:57.923Z,18.9
2017-06-25T00:26:02.698Z,18.89
2017-06-25T00:26:07.116Z,18.89
2017-06-25T00:26:11.540Z,18.9
2017-06-25T00:26:15.852Z,18.9
2017-06-25T00:26:20.184Z,18.9
2017-06-25T00:26:24.604Z,18.89
2017-06-25T00:26:28.669Z,18.9
2017-06-25T00:26:33.098Z,18.9
2017-06-25T00:26:37.527Z,18.89
2017-06-25T00:26:41.833Z,18.89
2017-06-25T00:26:46.250Z,18.89
2017-06-25T00:26:50.668Z,18.89
2017-06-25T00:26:54.966Z,18.89
2017-06-25T00:26:59.392Z,18.89
2017-06-25T00:27:04.078Z,18.89
2017-06-25T00:27:08.497Z,18.89
2017-06-25T00:27:12.919Z,18.88
2017-06-25T00:27:17.346Z,18.89
2017-06-25T00:27:21.768Z,18.88
2017-06-25T00:27:25.845Z,18.89
2017-06-25T00:27:30.031Z,18.89
2017-06-25T00:27:34.458Z,18.89
2017-06-25T00:27:38.880Z,18.89
2017-06-25T00:27:43.328Z,18.89
2017-06-25T00:27:47.748Z,18.89
2017-06-25T00:27:52.163Z,18.89
2017-06-25T00:27:56.461Z,18.89
2017-06-25T00:28:00.879Z,18.89
2017-06-25T00:28:05.306Z,18.9
2017-06-25T00:28:09.731Z,18.89
2017-06-25T00:28:14.034Z,18.89
2017-06-25T00:28:18.452Z,18.9
2017-06-25T00:28:22.762Z,18.9
2017-06-25T00:28:27.072Z,18.89
2017-06-25T00:28:31.258Z,18.89
2017-06-25T00:28:35.561Z,18.9
2017-06-25T00:28:39.979Z,18.89
2017-06-25T00:28:44.282Z,18.89
2017-06-25T00:28:48.734Z,18.89
2017-06-25T00:28:53.155Z,18.89
2017-06-25T00:28:57.454Z,18.89
2017-06-25T00:29:02.231Z,18.9
2017-06-25T00:29:06.540Z,18.89
2017-06-25T00:29:10.858Z,18.9
2017-06-25T00:29:15.277Z,18.89
2017-06-25T00:29:19.696Z,18.89
2017-06-25T00:29:24.003Z,18.9
2017-06-25T00:29:28.433Z,18.9
2017-06-25T00:29:32.738Z,18.89
2017-06-25T00:29:36.924Z,18.9
2017-06-25T00:29:41.344Z,18.9
2017-06-25T00:29:45.651Z,18.89
2017-06-25T00:29:50.074Z,18.89
2017-06-25T00:29:54.499Z,18.89
2017-06-25T00:29:58.919Z,18.9
2017-06-25T00:30:03.219Z,18.89
2017-06-25T00:30:07.413Z,18.89
2017-06-25T00:30:11.723Z,18.89
2017-06-25T00:30:16.050Z,18.89
2017-06-25T00:30:20.473Z,18.89
2017-06-25T00:30:24.779Z,18.89
2017-06-25T00:30:29.202Z,18.89
2017-06-25T00:30:33.511Z,18.89
2017-06-25T00:30:37.956Z,18.9
2017-06-25T00:30:42.380Z,18.89
2017-06-25T00:30:46.686Z,18.89
2017-06-25T00:30:51.111Z,18.89
2017-06-25T00:30:55.433Z,18.9
2017-06-25T00:30:59.856Z,18.9
2017-06-25T00:31:04.063Z,18.9
2017-06-25T00:31:08.493Z,18.9
2017-06-25T00:31:12.913Z,18.89
2017-06-25T00:31:17.220Z,18.89
2017-06-25T00:31:21.643Z,18.9
2017-06-25T00:31:25.948Z,18.89
2017-06-25T00:31:30.368Z,18.9
2017-06-25T00:31:34.797Z,18.9
2017-06-25T00:31:39.229Z,18.9
2017-06-25T00:31:43.650Z,18.9
2017-06-25T00:31:48.069Z,18.89
2017-06-25T00:31:52.498Z,18.9
2017-06-25T00:31:56.801Z,18.9
2017-06-25T00:32:00.757Z,18.9
2017-06-25T00:32:05.064Z,18.9
2017-06-25T00:32:09.486Z,18.89
2017-06-25T00:32:13.909Z,18.9
2017-06-25T00:32:18.211Z,18.91
2017-06-25T00:32:22.519Z,18.89
2017-06-25T00:32:26.705Z,18.91
2017-06-25T00:32:31.123Z,18.91
2017-06-25T00:32:35.428Z,18.9
2017-06-25T00:32:39.846Z,18.9
2017-06-25T00:32:44.151Z,18.91
2017-06-25T00:32:48.570Z,18.9
2017-06-25T00:32:52.757Z,18.9
2017-06-25T00:32:57.179Z,18.91
2017-06-25T00:33:01.598Z,18.92
2017-06-25T00:33:06.367Z,18.91
2017-06-25T00:33:10.673Z,18.91
2017-06-25T00:33:14.976Z,18.91
2017-06-25T00:33:19.162Z,18.91
2017-06-25T00:33:23.466Z,18.91
2017-06-25T00:33:27.190Z,18.91
2017-06-25T00:33:31.380Z,18.91
2017-06-25T00:33:35.798Z,18.91
2017-06-25T00:33:40.101Z,18.91
2017-06-25T00:33:44.290Z,18.92
2017-06-25T00:33:48.711Z,18.92
2017-06-25T00:33:53.134Z,18.92
2017-06-25T00:33:57.318Z,18.92
2017-06-25T00:34:01.617Z,18.92
2017-06-25T00:34:05.924Z,18.92
2017-06-25T00:34:10.375Z,18.92
2017-06-25T00:34:14.799Z,18.93
2017-06-25T00:34:19.228Z,18.93
2017-06-25T00:34:23.412Z,18.93
2017-06-25T00:34:27.483Z,18.93
2017-06-25T00:34:31.665Z,18.93
2017-06-25T00:34:36.085Z,18.93
2017-06-25T00:34:40.501Z,18.92
2017-06-25T00:34:44.689Z,18.93
2017-06-25T00:34:49.002Z,18.93
2017-06-25T00:34:53.419Z,18.94
2017-06-25T00:34:57.842Z,18.93
2017-06-25T00:35:02.462Z,18.94
2017-06-25T00:35:06.868Z,18.94
2017-06-25T00:35:11.319Z,18.94
2017-06-25T00:35:15.742Z,18.94
2017-06-25T00:35:20.172Z,18.94
2017-06-25T00:35:24.480Z,18.94
2017-06-25T00:35:28.676Z,18.94
2017-06-25T00:35:32.976Z,18.94
2017-06-25T00:35:37.280Z,18.94
2017-06-25T00:35:41.699Z,18.95
2017-06-25T00:35:46.013Z,18.95
2017-06-25T00:35:50.339Z,18.94
2017-06-25T00:35:54.759Z,18.95
2017-06-25T00:35:59.179Z,18.94
2017-06-25T00:36:03.600Z,18.95
2017-06-25T00:36:08.023Z,18.95
2017-06-25T00:36:12.465Z,18.94
2017-06-25T00:36:16.887Z,18.95
2017-06-25T00:36:21.192Z,18.95
2017-06-25T00:36:25.620Z,18.95
2017-06-25T00:36:29.691Z,18.95
2017-06-25T00:36:34.119Z,18.95
2017-06-25T00:36:38.183Z,18.95
2017-06-25T00:36:42.489Z,18.95
2017-06-25T00:36:46.906Z,18.95
2017-06-25T00:36:51.334Z,18.95
2017-06-25T00:36:55.761Z,18.95
2017-06-25T00:37:00.182Z,18.95
2017-06-25T00:37:04.503Z,18.95
2017-06-25T00:37:08.808Z,18.94
2017-06-25T00:37:13.237Z,18.95
2017-06-25T00:37:17.660Z,18.95
2017-06-25T00:37:21.846Z,18.95
2017-06-25T00:37:26.148Z,18.95
2017-06-25T00:37:30.575Z,18.94
2017-06-25T00:37:34.884Z,18.95
2017-06-25T00:37:39.188Z,18.95
2017-06-25T00:37:43.490Z,18.95
2017-06-25T00:37:47.909Z,18.95
2017-06-25T00:37:52.328Z,18.95
2017-06-25T00:37:56.751Z,18.95
2017-06-25T00:38:01.060Z,18.95
2017-06-25T00:38:05.413Z,18.94
2017-06-25T00:38:09.725Z,18.95
2017-06-25T00:38:14.156Z,18.93
2017-06-25T00:38:18.584Z,18.95
2017-06-25T00:38:22.769Z,18.94
2017-06-25T00:38:26.833Z,18.94
2017-06-25T00:38:31.138Z,18.94
2017-06-25T00:38:35.556Z,18.93
2017-06-25T00:38:39.861Z,18.94
2017-06-25T00:38:44.296Z,18.93
2017-06-25T00:38:48.714Z,18.93
2017-06-25T00:38:53.019Z,18.94
2017-06-25T00:38:57.326Z,18.94
2017-06-25T00:39:01.748Z,18.93
2017-06-25T00:39:06.163Z,18.93
2017-06-25T00:39:10.583Z,18.94
2017-06-25T00:39:15.005Z,18.94
2017-06-25T00:39:19.302Z,18.93
2017-06-25T00:39:23.506Z,18.94
2017-06-25T00:39:27.699Z,18.92
2017-06-25T00:39:31.888Z,18.92
2017-06-25T00:39:36.310Z,18.92
2017-06-25T00:39:40.728Z,18.93
2017-06-25T00:39:45.158Z,18.92
2017-06-25T00:39:49.465Z,18.93
2017-06-25T00:39:53.883Z,18.93
2017-06-25T00:39:58.303Z,18.92
2017-06-25T00:40:02.491Z,18.93
2017-06-25T00:40:07.100Z,18.92
2017-06-25T00:40:11.524Z,18.92
2017-06-25T00:40:15.828Z,18.91
2017-06-25T00:40:20.132Z,18.91
2017-06-25T00:40:24.435Z,18.91
2017-06-25T00:40:28.858Z,18.91
2017-06-25T00:40:33.047Z,18.91
2017-06-25T00:40:37.354Z,18.91
2017-06-25T00:40:41.775Z,18.91
2017-06-25T00:40:46.198Z,18.91
2017-06-25T00:40:50.627Z,18.91
2017-06-25T00:40:54.929Z,18.91
2017-06-25T00:40:59.351Z,18.91
2017-06-25T00:41:03.652Z,18.9
2017-06-25T00:41:07.726Z,18.91
2017-06-25T00:41:12.150Z,18.9
2017-06-25T00:41:16.454Z,18.91
2017-06-25T00:41:20.875Z,18.9
2017-06-25T00:41:25.061Z,18.91
2017-06-25T00:41:29.250Z,18.91
2017-06-25T00:41:33.322Z,18.91
2017-06-25T00:41:37.742Z,18.9
2017-06-25T00:41:42.159Z,18.9
2017-06-25T00:41:46.579Z,18.91
2017-06-25T00:41:51.009Z,18.9
2017-06-25T00:41:55.460Z,18.9
2017-06-25T00:41:59.767Z,18.9
2017-06-25T00:42:04.098Z,18.9
2017-06-25T00:42:08.522Z,18.89
2017-06-25T00:42:12.955Z,18.9
2017-06-25T00:42:17.262Z,18.9
2017-06-25T00:42:21.687Z,18.9
2017-06-25T00:42:25.994Z,18.9
2017-06-25T00:42:30.415Z,18.89
2017-06-25T00:42:34.867Z,18.89
2017-06-25T00:42:39.289Z,18.9
2017-06-25T00:42:43.591Z,18.89
2017-06-25T00:42:47.896Z,18.89
2017-06-25T00:42:52.326Z,18.89
2017-06-25T00:42:56.519Z,18.89
2017-06-25T00:43:00.850Z,18.89
2017-06-25T00:43:05.641Z,18.89
2017-06-25T00:43:09.944Z,18.89
2017-06-25T00:43:14.362Z,18.9
2017-06-25T00:43:18.693Z,18.89
2017-06-25T00:43:23.123Z,18.89
2017-06-25T00:43:27.312Z,18.89
2017-06-25T00:43:31.144Z,18.9
2017-06-25T00:43:35.450Z,18.89
2017-06-25T00:43:39.880Z,18.89
2017-06-25T00:43:43.947Z,18.89
2017-06-25T00:43:48.251Z,18.89
2017-06-25T00:43:52.671Z,18.89
2017-06-25T00:43:57.099Z,18.89
2017-06-25T00:44:01.526Z,18.89
2017-06-25T00:44:05.880Z,18.89
2017-06-25T00:44:10.300Z,18.89
2017-06-25T00:44:14.727Z,18.89
2017-06-25T00:44:19.034Z,18.89
2017-06-25T00:44:23.469Z,18.89
2017-06-25T00:44:27.894Z,18.9
2017-06-25T00:44:32.197Z,18.89
2017-06-25T00:44:36.496Z,18.89
2017-06-25T00:44:40.806Z,18.9
2017-06-25T00:44:45.231Z,18.89
2017-06-25T00:44:49.654Z,18.89
2017-06-25T00:44:54.081Z,18.89
2017-06-25T00:44:58.498Z,18.88
2017-06-25T00:45:02.933Z,18.89
2017-06-25T00:45:07.259Z,18.89
2017-06-25T00:45:11.687Z,18.9
2017-06-25T00:45:16.112Z,18.89
2017-06-25T00:45:20.412Z,18.9
2017-06-25T00:45:24.840Z,18.89
2017-06-25T00:45:29.284Z,18.9
2017-06-25T00:45:33.710Z,18.89
2017-06-25T00:45:38.135Z,18.9
2017-06-25T00:45:42.450Z,18.9
2017-06-25T00:45:46.904Z,18.89
2017-06-25T00:45:51.322Z,18.9
2017-06-25T00:45:55.746Z,18.9
2017-06-25T00:46:00.047Z,18.9
2017-06-25T00:46:04.479Z,18.9
2017-06-25T00:46:08.907Z,18.9
2017-06-25T00:46:13.330Z,18.9
2017-06-25T00:46:17.631Z,18.9
2017-06-25T00:46:21.821Z,18.9
2017-06-25T00:46:26.015Z,18.9
2017-06-25T00:46:30.461Z,18.9
2017-06-25T00:46:34.770Z,18.9
2017-06-25T00:46:39.192Z,18.9
2017-06-25T00:46:43.608Z,18.91
2017-06-25T00:46:48.033Z,18.91
2017-06-25T00:46:52.463Z,18.91
2017-06-25T00:46:56.883Z,18.91
2017-06-25T00:47:01.183Z,18.9
2017-06-25T00:47:05.537Z,18.91
2017-06-25T00:47:09.972Z,18.9
2017-06-25T00:47:14.278Z,18.9
2017-06-25T00:47:18.579Z,18.91
2017-06-25T00:47:22.882Z,18.9
2017-06-25T00:47:26.950Z,18.91
2017-06-25T00:47:31.262Z,18.9
2017-06-25T00:47:35.451Z,18.9
2017-06-25T00:47:39.872Z,18.9
2017-06-25T00:47:44.291Z,18.9
2017-06-25T00:47:48.596Z,18.9
2017-06-25T00:47:53.017Z,18.91
2017-06-25T00:47:57.324Z,18.91
2017-06-25T00:48:01.741Z,18.9
2017-06-25T00:48:06.044Z,18.9
2017-06-25T00:48:10.462Z,18.91
2017-06-25T00:48:14.767Z,18.9
2017-06-25T00:48:19.188Z,18.9
2017-06-25T00:48:23.494Z,18.91
2017-06-25T00:48:27.794Z,18.9
2017-06-25T00:48:31.981Z,18.9
2017-06-25T00:48:36.181Z,18.9
2017-06-25T00:48:40.487Z,18.91
2017-06-25T00:48:44.907Z,18.9
2017-06-25T00:48:49.329Z,18.9
2017-06-25T00:48:53.634Z,18.91
2017-06-25T00:48:57.942Z,18.9
2017-06-25T00:49:02.360Z,18.9
2017-06-25T00:49:06.776Z,18.9
2017-06-25T00:49:11.199Z,18.91
2017-06-25T00:49:15.620Z,18.9
2017-06-25T00:49:20.043Z,18.9
2017-06-25T00:49:24.110Z,18.9
2017-06-25T00:49:28.416Z,18.9
2017-06-25T00:49:32.716Z,18.91
2017-06-25T00:49:37.139Z,18.9
2017-06-25T00:49:41.473Z,18.9
2017-06-25T00:49:45.892Z,18.9
2017-06-25T00:49:50.309Z,18.89
2017-06-25T00:49:54.728Z,18.9
2017-06-25T00:49:59.031Z,18.9
2017-06-25T00:50:03.420Z,18.9
2017-06-25T00:50:07.626Z,18.9
2017-06-25T00:50:11.929Z,18.91
2017-06-25T00:50:16.353Z,18.89
2017-06-25T00:50:20.783Z,18.89
2017-06-25T00:50:24.973Z,18.9
2017-06-25T00:50:29.159Z,18.9
2017-06-25T00:50:33.345Z,18.9
2017-06-25T00:50:37.654Z,18.9
2017-06-25T00:50:42.072Z,18.91
2017-06-25T00:50:46.507Z,18.91
2017-06-25T00:50:50.925Z,18.9
2017-06-25T00:50:55.344Z,18.9
2017-06-25T00:50:59.649Z,18.9
2017-06-25T00:51:04.102Z,18.91
2017-06-25T00:51:08.412Z,18.91
2017-06-25T00:51:12.835Z,18.9
2017-06-25T00:51:17.146Z,18.9
2017-06-25T00:51:21.456Z,18.89
2017-06-25T00:51:25.530Z,18.9
2017-06-25T00:51:29.720Z,18.9
2017-06-25T00:51:34.140Z,18.9
2017-06-25T00:51:38.560Z,18.91
2017-06-25T00:51:42.978Z,18.91
2017-06-25T00:51:47.403Z,18.9
2017-06-25T00:51:51.851Z,18.91
2017-06-25T00:51:56.273Z,18.91
2017-06-25T00:52:00.581Z,18.9
2017-06-25T00:52:05.037Z,18.9
2017-06-25T00:52:09.458Z,18.91
2017-06-25T00:52:13.885Z,18.9
2017-06-25T00:52:18.302Z,18.9
2017-06-25T00:52:22.730Z,18.9
2017-06-25T00:52:26.916Z,18.91
2017-06-25T00:52:31.232Z,18.91
2017-06-25T00:52:35.537Z,18.9
2017-06-25T00:52:39.958Z,18.91
2017-06-25T00:52:44.375Z,18.9
2017-06-25T00:52:48.793Z,18.91
2017-06-25T00:52:53.096Z,18.9
2017-06-25T00:52:57.547Z,18.91
2017-06-25T00:53:01.971Z,18.91
2017-06-25T00:53:06.403Z,18.9
2017-06-25T00:53:10.822Z,18.9
2017-06-25T00:53:15.245Z,18.9
2017-06-25T00:53:19.550Z,18.91
2017-06-25T00:53:23.864Z,18.9
2017-06-25T00:53:28.052Z,18.91
2017-06-25T00:53:32.257Z,18.91
2017-06-25T00:53:36.676Z,18.91
2017-06-25T00:53:40.990Z,18.91
2017-06-25T00:53:45.427Z,18.91
2017-06-25T00:53:49.844Z,18.91
2017-06-25T00:53:54.265Z,18.92
2017-06-25T00:53:58.686Z,18.91
2017-06-25T00:54:02.995Z,18.91
2017-06-25T00:54:07.302Z,18.91
2017-06-25T00:54:11.601Z,18.91
2017-06-25T00:54:16.020Z,18.91
2017-06-25T00:54:20.437Z,18.91
2017-06-25T00:54:24.746Z,18.91
2017-06-25T00:54:28.939Z,18.91
2017-06-25T00:54:33.005Z,18.91
2017-06-25T00:54:37.425Z,18.91
2017-06-25T00:54:41.850Z,18.91
2017-06-25T00:54:46.178Z,18.91
2017-06-25T00:54:50.609Z,18.91
2017-06-25T00:54:54.678Z,18.91
2017-06-25T00:54:58.977Z,18.92
2017-06-25T00:55:03.291Z,18.91
2017-06-25T00:55:07.728Z,18.92
2017-06-25T00:55:12.035Z,18.92
2017-06-25T00:55:16.457Z,18.91
2017-06-25T00:55:20.881Z,18.92
2017-06-25T00:55:25.071Z,18.91
2017-06-25T00:55:29.489Z,18.93
2017-06-25T00:55:33.673Z,18.92
2017-06-25T00:55:37.975Z,18.92
2017-06-25T00:55:42.277Z,18.93
2017-06-25T00:55:46.701Z,18.92
2017-06-25T00:55:51.125Z,18.92
2017-06-25T00:55:55.305Z,18.92
2017-06-25T00:55:59.726Z,18.92
2017-06-25T00:56:04.149Z,18.92
2017-06-25T00:56:08.576Z,18.93
2017-06-25T00:56:12.998Z,18.92
2017-06-25T00:56:17.424Z,18.92
2017-06-25T00:56:21.725Z,18.92
2017-06-25T00:56:25.909Z,18.92
2017-06-25T00:56:30.332Z,18.92
2017-06-25T00:56:34.528Z,18.92